createdAt,value
2019-01-23T00:00:03.703Z,1003.92
2019-01-23T00:00:44.373Z,1003.92
2019-01-23T00:03:15.043Z,1003.87
2019-01-23T00:03:55.645Z,1003.85
2019-01-23T00:04:36.243Z,1003.89
2019-01-23T00:05:16.905Z,1003.94
2019-01-23T00:05:57.497Z,1003.9
2019-01-23T00:06:38.096Z,1003.9
2019-01-23T00:07:18.705Z,1003.82
2019-01-23T00:07:59.309Z,1003.8
2019-01-23T00:08:39.909Z,1003.82
2019-01-23T00:09:20.515Z,1003.85
2019-01-23T00:10:01.115Z,1003.75
2019-01-23T00:10:41.712Z,1003.75
2019-01-23T00:11:22.328Z,1003.7
2019-01-23T00:12:02.923Z,1003.76
2019-01-23T00:12:43.523Z,1003.75
2019-01-23T00:13:24.124Z,1003.73
2019-01-23T00:14:04.727Z,1003.75
2019-01-23T00:14:45.331Z,1003.77
2019-01-23T00:15:25.941Z,1003.79
2019-01-23T00:16:06.553Z,1003.74
2019-01-23T00:16:47.147Z,1003.79
2019-01-23T00:17:27.745Z,1003.8
2019-01-23T00:18:08.338Z,1003.81
2019-01-23T00:18:48.927Z,1003.76
2019-01-23T00:19:29.557Z,1003.79
2019-01-23T00:20:10.145Z,1003.76
2019-01-23T00:20:50.747Z,1003.75
2019-01-23T00:21:31.347Z,1003.74
2019-01-23T00:22:11.966Z,1003.74
2019-01-23T00:22:52.584Z,1003.68
2019-01-23T00:23:33.190Z,1003.69
2019-01-23T00:24:13.793Z,1003.68
2019-01-23T00:24:54.397Z,1003.65
2019-01-23T00:25:35.011Z,1003.63
2019-01-23T00:26:15.613Z,1003.65
2019-01-23T00:26:56.209Z,1003.64
2019-01-23T00:27:36.807Z,1003.59
2019-01-23T00:28:17.419Z,1003.64
2019-01-23T00:28:58.025Z,1003.62
2019-01-23T00:29:38.665Z,1003.62
2019-01-23T00:30:19.261Z,1003.61
2019-01-23T00:30:59.861Z,1003.63
2019-01-23T00:31:40.489Z,1003.6
2019-01-23T00:32:21.097Z,1003.62
2019-01-23T00:33:01.697Z,1003.59
2019-01-23T00:33:42.309Z,1003.58
2019-01-23T00:34:22.943Z,1003.54
2019-01-23T00:35:03.571Z,1003.54
2019-01-23T00:35:44.203Z,1003.52
2019-01-23T00:36:24.809Z,1003.51
2019-01-23T00:37:05.425Z,1003.48
2019-01-23T00:37:46.021Z,1003.51
2019-01-23T00:38:26.617Z,1003.54
2019-01-23T00:39:07.266Z,1003.53
2019-01-23T00:39:47.877Z,1003.56
2019-01-23T00:40:28.485Z,1003.54
2019-01-23T00:41:09.087Z,1003.58
2019-01-23T00:41:49.689Z,1003.54
2019-01-23T00:42:30.289Z,1003.5
2019-01-23T00:43:10.877Z,1003.49
2019-01-23T00:43:51.479Z,1003.46
2019-01-23T00:44:32.092Z,1003.46
2019-01-23T00:45:12.741Z,1003.46
2019-01-23T00:45:53.358Z,1003.41
2019-01-23T00:46:33.973Z,1003.47
2019-01-23T00:47:14.589Z,1003.47
2019-01-23T00:47:55.189Z,1003.47
2019-01-23T00:48:35.783Z,1003.46
2019-01-23T00:49:16.388Z,1003.46
2019-01-23T00:49:56.997Z,1003.46
2019-01-23T00:50:37.605Z,1003.41
2019-01-23T00:51:18.204Z,1003.39
2019-01-23T00:51:58.817Z,1003.39
2019-01-23T00:52:39.435Z,1003.36
2019-01-23T00:53:20.041Z,1003.36
2019-01-23T00:54:00.637Z,1003.37
2019-01-23T00:54:41.263Z,1003.37
2019-01-23T00:55:21.881Z,1003.37
2019-01-23T00:56:02.485Z,1003.33
2019-01-23T00:56:43.127Z,1003.35
2019-01-23T00:57:23.731Z,1003.3
2019-01-23T00:58:04.321Z,1003.26
2019-01-23T00:58:49.123Z,1003.26
2019-01-23T00:59:25.558Z,1003.25
2019-01-23T01:00:06.129Z,1003.26
2019-01-23T01:00:46.724Z,1003.28
2019-01-23T01:01:27.319Z,1003.24
2019-01-23T01:02:07.932Z,1003.25
2019-01-23T01:02:48.539Z,1003.21
2019-01-23T01:03:29.154Z,1003.19
2019-01-23T01:04:09.769Z,1003.21
2019-01-23T01:04:50.391Z,1003.23
2019-01-23T01:05:30.995Z,1003.17
2019-01-23T01:06:11.610Z,1003.18
2019-01-23T01:06:52.251Z,1003.16
2019-01-23T01:07:32.872Z,1003.19
2019-01-23T01:08:13.479Z,1003.15
2019-01-23T01:08:54.063Z,1003.1
2019-01-23T01:09:34.723Z,1003.1
2019-01-23T01:10:15.335Z,1003.11
2019-01-23T01:10:55.943Z,1003.11
2019-01-23T01:11:36.539Z,1003.05
2019-01-23T01:12:17.134Z,1003.05
2019-01-23T01:12:57.781Z,1003.05
2019-01-23T01:13:38.391Z,1003.02
2019-01-23T01:14:19.029Z,1003.04
2019-01-23T01:14:59.673Z,1003.06
2019-01-23T01:15:40.305Z,1002.98
2019-01-23T01:16:20.917Z,1002.97
2019-01-23T01:17:01.530Z,1002.93
2019-01-23T01:17:42.117Z,1002.93
2019-01-23T01:18:22.729Z,1002.93
2019-01-23T01:19:03.342Z,1002.94
2019-01-23T01:19:43.929Z,1002.95
2019-01-23T01:20:24.533Z,1002.94
2019-01-23T01:21:05.193Z,1002.93
2019-01-23T01:21:45.835Z,1002.97
2019-01-23T01:22:26.449Z,1002.94
2019-01-23T01:23:07.087Z,1002.97
2019-01-23T01:23:47.713Z,1002.97
2019-01-23T01:24:28.323Z,1002.93
2019-01-23T01:25:08.929Z,1002.94
2019-01-23T01:25:49.543Z,1002.91
2019-01-23T01:26:30.153Z,1002.92
2019-01-23T01:27:10.808Z,1002.87
2019-01-23T01:27:51.419Z,1002.86
2019-01-23T01:28:32.029Z,1002.87
2019-01-23T01:29:12.631Z,1002.83
2019-01-23T01:29:53.253Z,1002.77
2019-01-23T01:30:33.909Z,1002.78
2019-01-23T01:31:14.504Z,1002.73
2019-01-23T01:31:55.141Z,1002.76
2019-01-23T01:32:35.751Z,1002.75
2019-01-23T01:33:16.375Z,1002.77
2019-01-23T01:33:57.011Z,1002.79
2019-01-23T01:34:37.621Z,1002.81
2019-01-23T01:35:18.240Z,1002.83
2019-01-23T01:35:58.851Z,1002.8
2019-01-23T01:36:39.458Z,1002.8
2019-01-23T01:37:20.057Z,1002.8
2019-01-23T01:38:00.664Z,1002.76
2019-01-23T01:38:41.269Z,1002.75
2019-01-23T01:39:21.888Z,1002.75
2019-01-23T01:40:02.493Z,1002.75
2019-01-23T01:40:43.101Z,1002.76
2019-01-23T01:41:23.753Z,1002.73
2019-01-23T01:42:04.366Z,1002.75
2019-01-23T01:42:44.949Z,1002.71
2019-01-23T01:43:25.573Z,1002.69
2019-01-23T01:44:06.204Z,1002.68
2019-01-23T01:44:46.799Z,1002.69
2019-01-23T01:45:27.405Z,1002.68
2019-01-23T01:46:08.017Z,1002.67
2019-01-23T01:46:48.619Z,1002.64
2019-01-23T01:47:29.241Z,1002.64
2019-01-23T01:48:09.863Z,1002.66
2019-01-23T01:48:50.491Z,1002.64
2019-01-23T01:49:31.117Z,1002.66
2019-01-23T01:50:11.729Z,1002.66
2019-01-23T01:50:52.331Z,1002.66
2019-01-23T01:51:32.933Z,1002.65
2019-01-23T01:52:13.535Z,1002.66
2019-01-23T01:52:54.132Z,1002.67
2019-01-23T01:53:34.750Z,1002.67
2019-01-23T01:54:15.351Z,1002.75
2019-01-23T01:54:55.967Z,1002.69
2019-01-23T01:55:36.579Z,1002.67
2019-01-23T01:56:17.217Z,1002.65
2019-01-23T01:56:57.835Z,1002.68
2019-01-23T01:57:38.435Z,1002.62
2019-01-23T01:58:19.054Z,1002.61
2019-01-23T01:59:02.834Z,1002.6
2019-01-23T01:59:40.267Z,1002.61
2019-01-23T02:00:20.889Z,1002.63
2019-01-23T02:01:01.521Z,1002.61
2019-01-23T02:01:42.133Z,1002.6
2019-01-23T02:02:22.731Z,1002.56
2019-01-23T02:03:03.337Z,1002.55
2019-01-23T02:03:43.951Z,1002.54
2019-01-23T02:04:24.555Z,1002.52
2019-01-23T02:05:05.181Z,1002.53
2019-01-23T02:05:45.779Z,1002.5
2019-01-23T02:06:26.395Z,1002.47
2019-01-23T02:07:07.013Z,1002.45
2019-01-23T02:07:47.666Z,1002.44
2019-01-23T02:08:28.271Z,1002.47
2019-01-23T02:09:08.879Z,1002.45
2019-01-23T02:09:49.491Z,1002.48
2019-01-23T02:10:30.103Z,1002.48
2019-01-23T02:11:10.706Z,1002.45
2019-01-23T02:11:51.313Z,1002.49
2019-01-23T02:12:31.926Z,1002.44
2019-01-23T02:13:12.525Z,1002.4
2019-01-23T02:13:53.143Z,1002.4
2019-01-23T02:14:33.753Z,1002.4
2019-01-23T02:15:14.365Z,1002.43
2019-01-23T02:15:54.969Z,1002.45
2019-01-23T02:16:35.573Z,1002.4
2019-01-23T02:17:16.175Z,1002.43
2019-01-23T02:17:56.767Z,1002.42
2019-01-23T02:18:37.367Z,1002.45
2019-01-23T02:19:17.960Z,1002.42
2019-01-23T02:19:58.585Z,1002.43
2019-01-23T02:20:39.181Z,1002.42
2019-01-23T02:21:19.811Z,1002.43
2019-01-23T02:22:00.433Z,1002.41
2019-01-23T02:22:41.037Z,1002.43
2019-01-23T02:23:21.637Z,1002.44
2019-01-23T02:24:02.255Z,1002.44
2019-01-23T02:24:42.859Z,1002.45
2019-01-23T02:25:23.495Z,1002.48
2019-01-23T02:26:04.115Z,1002.49
2019-01-23T02:26:44.719Z,1002.43
2019-01-23T02:27:25.348Z,1002.45
2019-01-23T02:28:05.966Z,1002.47
2019-01-23T02:28:46.592Z,1002.45
2019-01-23T02:29:27.203Z,1002.41
2019-01-23T02:30:07.816Z,1002.41
2019-01-23T02:30:48.424Z,1002.38
2019-01-23T02:31:29.029Z,1002.41
2019-01-23T02:32:09.641Z,1002.35
2019-01-23T02:32:50.256Z,1002.34
2019-01-23T02:33:30.889Z,1002.28
2019-01-23T02:34:11.505Z,1002.26
2019-01-23T02:34:52.123Z,1002.29
2019-01-23T02:35:32.743Z,1002.27
2019-01-23T02:36:13.347Z,1002.24
2019-01-23T02:36:53.979Z,1002.28
2019-01-23T02:37:34.599Z,1002.26
2019-01-23T02:38:15.194Z,1002.26
2019-01-23T02:38:55.797Z,1002.25
2019-01-23T02:39:36.406Z,1002.27
2019-01-23T02:40:17.043Z,1002.26
2019-01-23T02:40:57.645Z,1002.23
2019-01-23T02:41:38.245Z,1002.26
2019-01-23T02:42:18.853Z,1002.28
2019-01-23T02:42:59.505Z,1002.26
2019-01-23T02:43:40.121Z,1002.22
2019-01-23T02:44:20.734Z,1002.17
2019-01-23T02:45:01.405Z,1002.21
2019-01-23T02:45:42.031Z,1002.17
2019-01-23T02:46:22.623Z,1002.18
2019-01-23T02:47:03.233Z,1002.17
2019-01-23T02:47:43.868Z,1002.2
2019-01-23T02:48:24.508Z,1002.16
2019-01-23T02:49:05.119Z,1002.15
2019-01-23T02:49:45.771Z,1002.14
2019-01-23T02:50:26.369Z,1002.1
2019-01-23T02:51:07.001Z,1002.06
2019-01-23T02:51:47.609Z,1002.04
2019-01-23T02:52:39.384Z,1002.03
2019-01-23T02:53:20.047Z,1001.97
2019-01-23T02:54:00.661Z,1001.95
2019-01-23T02:54:41.258Z,1001.98
2019-01-23T02:55:21.863Z,1001.95
2019-01-23T02:56:02.472Z,1001.97
2019-01-23T02:56:43.099Z,1002.01
2019-01-23T02:57:23.713Z,1002.04
2019-01-23T02:58:04.327Z,1002.02
2019-01-23T02:58:44.925Z,1002.08
2019-01-23T02:59:25.575Z,1002.06
2019-01-23T03:00:06.189Z,1002.06
2019-01-23T03:00:46.841Z,1002.12
2019-01-23T03:01:27.445Z,1002.08
2019-01-23T03:02:08.085Z,1002.03
2019-01-23T03:02:48.697Z,1001.96
2019-01-23T03:03:29.285Z,1001.98
2019-01-23T03:04:09.904Z,1001.99
2019-01-23T03:04:50.491Z,1002.03
2019-01-23T03:05:31.135Z,1002.04
2019-01-23T03:06:11.754Z,1002
2019-01-23T03:06:52.367Z,1002.04
2019-01-23T03:07:32.981Z,1002.06
2019-01-23T03:08:13.596Z,1002.07
2019-01-23T03:08:54.197Z,1002.07
2019-01-23T03:09:34.805Z,1002.06
2019-01-23T03:10:15.397Z,1002.05
2019-01-23T03:10:56.003Z,1002.06
2019-01-23T03:11:36.667Z,1002.03
2019-01-23T03:12:17.275Z,1002.01
2019-01-23T03:12:57.916Z,1001.99
2019-01-23T03:13:38.537Z,1002
2019-01-23T03:14:19.137Z,1001.97
2019-01-23T03:14:59.733Z,1001.94
2019-01-23T03:15:40.336Z,1001.91
2019-01-23T03:16:20.944Z,1001.91
2019-01-23T03:17:01.588Z,1001.81
2019-01-23T03:17:42.206Z,1001.81
2019-01-23T03:18:22.813Z,1001.77
2019-01-23T03:19:03.398Z,1001.76
2019-01-23T03:19:44.080Z,1001.77
2019-01-23T03:20:24.681Z,1001.81
2019-01-23T03:21:05.308Z,1001.82
2019-01-23T03:21:45.932Z,1001.81
2019-01-23T03:22:26.534Z,1001.8
2019-01-23T03:23:07.126Z,1001.78
2019-01-23T03:23:47.762Z,1001.78
2019-01-23T03:24:28.369Z,1001.77
2019-01-23T03:25:08.979Z,1001.75
2019-01-23T03:25:49.580Z,1001.74
2019-01-23T03:26:30.200Z,1001.71
2019-01-23T03:27:10.856Z,1001.7
2019-01-23T03:27:51.475Z,1001.66
2019-01-23T03:28:32.078Z,1001.69
2019-01-23T03:29:12.705Z,1001.67
2019-01-23T03:29:53.312Z,1001.66
2019-01-23T03:30:33.926Z,1001.65
2019-01-23T03:31:14.535Z,1001.61
2019-01-23T03:31:55.168Z,1001.62
2019-01-23T03:32:35.783Z,1001.62
2019-01-23T03:33:16.391Z,1001.6
2019-01-23T03:33:57.089Z,1001.62
2019-01-23T03:34:37.692Z,1001.57
2019-01-23T03:35:18.301Z,1001.6
2019-01-23T03:35:58.924Z,1001.57
2019-01-23T03:36:39.520Z,1001.58
2019-01-23T03:37:20.112Z,1001.53
2019-01-23T03:38:00.724Z,1001.56
2019-01-23T03:38:41.350Z,1001.55
2019-01-23T03:39:21.946Z,1001.56
2019-01-23T03:40:02.550Z,1001.58
2019-01-23T03:40:43.145Z,1001.61
2019-01-23T03:41:23.744Z,1001.56
2019-01-23T03:42:04.336Z,1001.6
2019-01-23T03:42:44.952Z,1001.6
2019-01-23T03:43:25.548Z,1001.63
2019-01-23T03:44:06.161Z,1001.62
2019-01-23T03:44:46.771Z,1001.65
2019-01-23T03:45:27.392Z,1001.63
2019-01-23T03:46:08.006Z,1001.61
2019-01-23T03:46:48.615Z,1001.59
2019-01-23T03:47:29.216Z,1001.61
2019-01-23T03:48:09.824Z,1001.61
2019-01-23T03:48:50.493Z,1001.58
2019-01-23T03:49:31.123Z,1001.57
2019-01-23T03:50:11.750Z,1001.56
2019-01-23T03:50:52.354Z,1001.54
2019-01-23T03:51:32.954Z,1001.58
2019-01-23T03:52:13.567Z,1001.58
2019-01-23T03:52:54.181Z,1001.62
2019-01-23T03:53:34.800Z,1001.63
2019-01-23T03:54:15.394Z,1001.68
2019-01-23T03:54:56.013Z,1001.66
2019-01-23T03:55:36.631Z,1001.67
2019-01-23T03:56:17.258Z,1001.7
2019-01-23T03:56:57.869Z,1001.68
2019-01-23T03:57:38.486Z,1001.74
2019-01-23T03:58:19.098Z,1001.71
2019-01-23T03:58:59.714Z,1001.71
2019-01-23T03:59:40.334Z,1001.72
2019-01-23T04:00:20.936Z,1001.73
2019-01-23T04:01:01.551Z,1001.68
2019-01-23T04:01:42.157Z,1001.7
2019-01-23T04:02:22.795Z,1001.63
2019-01-23T04:03:03.399Z,1001.61
2019-01-23T04:03:44.022Z,1001.62
2019-01-23T04:04:24.620Z,1001.59
2019-01-23T04:05:05.242Z,1001.61
2019-01-23T04:05:45.863Z,1001.63
2019-01-23T04:06:26.474Z,1001.68
2019-01-23T04:07:07.078Z,1001.67
2019-01-23T04:07:47.711Z,1001.66
2019-01-23T04:08:28.338Z,1001.63
2019-01-23T04:09:08.956Z,1001.61
2019-01-23T04:09:49.580Z,1001.63
2019-01-23T04:10:30.198Z,1001.57
2019-01-23T04:11:10.833Z,1001.62
2019-01-23T04:11:51.447Z,1001.58
2019-01-23T04:12:32.067Z,1001.56
2019-01-23T04:13:12.712Z,1001.57
2019-01-23T04:13:53.352Z,1001.54
2019-01-23T04:14:33.973Z,1001.55
2019-01-23T04:15:14.595Z,1001.56
2019-01-23T04:15:55.207Z,1001.58
2019-01-23T04:16:35.802Z,1001.58
2019-01-23T04:17:16.406Z,1001.63
2019-01-23T04:17:57.000Z,1001.65
2019-01-23T04:18:37.606Z,1001.65
2019-01-23T04:19:18.272Z,1001.63
2019-01-23T04:19:58.890Z,1001.6
2019-01-23T04:20:39.510Z,1001.53
2019-01-23T04:21:20.142Z,1001.5
2019-01-23T04:22:00.757Z,1001.47
2019-01-23T04:22:41.372Z,1001.45
2019-01-23T04:23:21.994Z,1001.47
2019-01-23T04:24:02.598Z,1001.45
2019-01-23T04:24:43.204Z,1001.46
2019-01-23T04:25:23.840Z,1001.44
2019-01-23T04:26:04.428Z,1001.43
2019-01-23T04:26:45.053Z,1001.42
2019-01-23T04:27:25.664Z,1001.42
2019-01-23T04:28:06.261Z,1001.43
2019-01-23T04:28:46.872Z,1001.39
2019-01-23T04:29:27.506Z,1001.38
2019-01-23T04:30:08.130Z,1001.33
2019-01-23T04:30:48.779Z,1001.32
2019-01-23T04:31:29.372Z,1001.28
2019-01-23T04:32:09.976Z,1001.3
2019-01-23T04:32:50.591Z,1001.22
2019-01-23T04:33:31.204Z,1001.24
2019-01-23T04:34:11.837Z,1001.24
2019-01-23T04:34:52.448Z,1001.17
2019-01-23T04:35:33.054Z,1001.17
2019-01-23T04:36:13.695Z,1001.15
2019-01-23T04:36:54.306Z,1001.08
2019-01-23T04:37:34.932Z,1001.09
2019-01-23T04:38:15.552Z,1001.1
2019-01-23T04:38:56.146Z,1001.11
2019-01-23T04:39:36.751Z,1001.08
2019-01-23T04:40:17.360Z,1001.06
2019-01-23T04:40:57.960Z,1001.02
2019-01-23T04:41:38.574Z,1001.09
2019-01-23T04:42:19.214Z,1001.07
2019-01-23T04:42:59.838Z,1001.08
2019-01-23T04:43:40.510Z,1001.04
2019-01-23T04:44:21.121Z,1001.01
2019-01-23T04:45:01.776Z,1001.05
2019-01-23T04:45:42.400Z,1001.05
2019-01-23T04:46:23.016Z,1001.06
2019-01-23T04:47:03.634Z,1001.05
2019-01-23T04:47:44.251Z,1001.01
2019-01-23T04:48:24.870Z,1001.01
2019-01-23T04:49:05.511Z,1001.01
2019-01-23T04:49:46.120Z,1000.98
2019-01-23T04:50:26.742Z,1000.95
2019-01-23T04:51:07.338Z,1000.92
2019-01-23T04:51:47.940Z,1000.89
2019-01-23T04:52:28.552Z,1000.9
2019-01-23T04:53:09.172Z,1000.9
2019-01-23T04:53:49.811Z,1000.98
2019-01-23T04:54:30.444Z,1000.98
2019-01-23T04:55:11.056Z,1000.92
2019-01-23T04:55:51.684Z,1000.87
2019-01-23T04:56:32.298Z,1000.85
2019-01-23T04:57:12.892Z,1000.83
2019-01-23T04:57:53.504Z,1000.84
2019-01-23T04:58:34.140Z,1000.82
2019-01-23T04:59:14.776Z,1000.81
2019-01-23T04:59:55.429Z,1000.79
2019-01-23T05:00:36.033Z,1000.81
2019-01-23T05:01:16.636Z,1000.77
2019-01-23T05:01:57.227Z,1000.8
2019-01-23T05:02:37.833Z,1000.77
2019-01-23T05:03:18.428Z,1000.77
2019-01-23T05:03:59.044Z,1000.78
2019-01-23T05:04:39.672Z,1000.76
2019-01-23T05:05:20.285Z,1000.78
2019-01-23T05:06:00.922Z,1000.75
2019-01-23T05:06:41.562Z,1000.75
2019-01-23T05:07:22.178Z,1000.75
2019-01-23T05:08:02.788Z,1000.74
2019-01-23T05:08:43.403Z,1000.69
2019-01-23T05:09:24.012Z,1000.73
2019-01-23T05:10:04.663Z,1000.74
2019-01-23T05:10:45.276Z,1000.69
2019-01-23T05:11:25.903Z,1000.68
2019-01-23T05:12:06.516Z,1000.68
2019-01-23T05:12:47.141Z,1000.66
2019-01-23T05:13:27.760Z,1000.64
2019-01-23T05:14:08.373Z,1000.63
2019-01-23T05:14:48.974Z,1000.62
2019-01-23T05:15:29.598Z,1000.62
2019-01-23T05:16:10.243Z,1000.64
2019-01-23T05:16:50.862Z,1000.64
2019-01-23T05:17:31.473Z,1000.71
2019-01-23T05:18:12.078Z,1000.74
2019-01-23T05:18:52.686Z,1000.75
2019-01-23T05:19:33.300Z,1000.68
2019-01-23T05:20:13.905Z,1000.71
2019-01-23T05:20:54.534Z,1000.63
2019-01-23T05:21:35.152Z,1000.63
2019-01-23T05:22:15.768Z,1000.64
2019-01-23T05:22:56.398Z,1000.61
2019-01-23T05:23:37.010Z,1000.6
2019-01-23T05:24:17.620Z,1000.53
2019-01-23T05:24:58.246Z,1000.5
2019-01-23T05:25:38.860Z,1000.47
2019-01-23T05:26:19.468Z,1000.45
2019-01-23T05:27:00.076Z,1000.45
2019-01-23T05:27:40.693Z,1000.5
2019-01-23T05:28:21.317Z,1000.46
2019-01-23T05:29:01.925Z,1000.46
2019-01-23T05:29:42.523Z,1000.43
2019-01-23T05:30:23.143Z,1000.43
2019-01-23T05:31:03.750Z,1000.44
2019-01-23T05:31:44.354Z,1000.45
2019-01-23T05:32:24.983Z,1000.41
2019-01-23T05:33:05.583Z,1000.41
2019-01-23T05:33:46.183Z,1000.41
2019-01-23T05:34:26.791Z,1000.44
2019-01-23T05:35:07.392Z,1000.4
2019-01-23T05:35:48.008Z,1000.41
2019-01-23T05:36:28.622Z,1000.43
2019-01-23T05:37:09.239Z,1000.39
2019-01-23T05:37:49.883Z,1000.39
2019-01-23T05:38:30.438Z,1000.4
2019-01-23T05:39:11.070Z,1000.39
2019-01-23T05:39:51.680Z,1000.36
2019-01-23T05:40:32.297Z,1000.33
2019-01-23T05:41:12.912Z,1000.32
2019-01-23T05:41:53.517Z,1000.31
2019-01-23T05:42:34.131Z,1000.29
2019-01-23T05:43:14.733Z,1000.24
2019-01-23T05:43:55.353Z,1000.23
2019-01-23T05:44:36.006Z,1000.24
2019-01-23T05:45:16.622Z,1000.21
2019-01-23T05:45:57.228Z,1000.17
2019-01-23T05:46:37.829Z,1000.19
2019-01-23T05:47:18.464Z,1000.13
2019-01-23T05:47:59.068Z,1000.18
2019-01-23T05:48:39.677Z,1000.18
2019-01-23T05:49:20.283Z,1000.2
2019-01-23T05:50:00.903Z,1000.2
2019-01-23T05:50:41.540Z,1000.2
2019-01-23T05:51:22.139Z,1000.22
2019-01-23T05:52:02.743Z,1000.22
2019-01-23T05:52:43.354Z,1000.17
2019-01-23T05:53:23.978Z,1000.16
2019-01-23T05:54:04.615Z,1000.13
2019-01-23T05:54:45.241Z,1000.09
2019-01-23T05:55:25.866Z,1000.12
2019-01-23T05:56:06.483Z,1000.11
2019-01-23T05:56:47.082Z,1000.12
2019-01-23T05:57:27.719Z,1000.11
2019-01-23T05:58:08.319Z,1000.08
2019-01-23T05:58:48.921Z,1000.09
2019-01-23T05:59:29.531Z,1000.03
2019-01-23T06:00:10.161Z,1000.05
2019-01-23T06:00:50.771Z,1000.02
2019-01-23T06:01:31.414Z,1000
2019-01-23T06:02:12.009Z,1000.01
2019-01-23T06:02:52.639Z,999.91
2019-01-23T06:03:33.253Z,999.9
2019-01-23T06:04:13.872Z,999.86
2019-01-23T06:04:54.523Z,999.83
2019-01-23T06:05:35.139Z,999.79
2019-01-23T06:06:15.752Z,999.77
2019-01-23T06:06:56.381Z,999.78
2019-01-23T06:07:37.057Z,999.79
2019-01-23T06:08:17.678Z,999.8
2019-01-23T06:08:58.298Z,999.77
2019-01-23T06:09:38.920Z,999.76
2019-01-23T06:10:19.546Z,999.76
2019-01-23T06:11:00.152Z,999.75
2019-01-23T06:11:40.767Z,999.73
2019-01-23T06:12:21.362Z,999.71
2019-01-23T06:13:01.956Z,999.72
2019-01-23T06:13:42.564Z,999.72
2019-01-23T06:14:23.169Z,999.73
2019-01-23T06:15:03.774Z,999.71
2019-01-23T06:15:44.373Z,999.7
2019-01-23T06:16:24.983Z,999.73
2019-01-23T06:17:05.579Z,999.67
2019-01-23T06:17:46.211Z,999.68
2019-01-23T06:18:26.834Z,999.68
2019-01-23T06:19:07.470Z,999.69
2019-01-23T06:19:48.079Z,999.7
2019-01-23T06:20:28.698Z,999.69
2019-01-23T06:21:09.329Z,999.7
2019-01-23T06:21:49.940Z,999.69
2019-01-23T06:22:30.546Z,999.69
2019-01-23T06:23:11.195Z,999.67
2019-01-23T06:23:51.824Z,999.67
2019-01-23T06:24:32.475Z,999.71
2019-01-23T06:25:13.068Z,999.67
2019-01-23T06:25:53.769Z,999.64
2019-01-23T06:26:34.463Z,999.63
2019-01-23T06:27:15.092Z,999.62
2019-01-23T06:27:55.731Z,999.6
2019-01-23T06:28:36.349Z,999.58
2019-01-23T06:29:16.947Z,999.57
2019-01-23T06:29:57.593Z,999.62
2019-01-23T06:30:38.229Z,999.62
2019-01-23T06:31:18.831Z,999.59
2019-01-23T06:31:59.445Z,999.59
2019-01-23T06:32:40.049Z,999.61
2019-01-23T06:33:20.728Z,999.63
2019-01-23T06:34:01.277Z,999.7
2019-01-23T06:34:41.901Z,999.62
2019-01-23T06:35:22.539Z,999.63
2019-01-23T06:36:03.169Z,999.58
2019-01-23T06:36:43.776Z,999.64
2019-01-23T06:37:24.396Z,999.61
2019-01-23T06:38:04.989Z,999.56
2019-01-23T06:38:45.586Z,999.57
2019-01-23T06:39:26.253Z,999.57
2019-01-23T06:40:06.833Z,999.56
2019-01-23T06:40:47.433Z,999.53
2019-01-23T06:41:28.035Z,999.5
2019-01-23T06:42:08.649Z,999.46
2019-01-23T06:42:49.275Z,999.38
2019-01-23T06:43:29.887Z,999.33
2019-01-23T06:44:10.479Z,999.35
2019-01-23T06:44:51.077Z,999.28
2019-01-23T06:45:31.689Z,999.23
2019-01-23T06:46:12.311Z,999.2
2019-01-23T06:46:52.935Z,999.22
2019-01-23T06:47:33.534Z,999.21
2019-01-23T06:48:14.151Z,999.18
2019-01-23T06:48:54.763Z,999.23
2019-01-23T06:49:35.375Z,999.24
2019-01-23T06:50:15.985Z,999.21
2019-01-23T06:50:56.601Z,999.13
2019-01-23T06:51:37.271Z,999.13
2019-01-23T06:52:17.873Z,999.15
2019-01-23T06:52:58.499Z,999.13
2019-01-23T06:53:39.193Z,999.13
2019-01-23T06:54:19.807Z,999.13
2019-01-23T06:55:00.477Z,999.13
2019-01-23T06:55:41.085Z,999.09
2019-01-23T06:56:21.701Z,999.11
2019-01-23T06:57:02.305Z,999.1
2019-01-23T06:57:42.917Z,999.07
2019-01-23T06:58:23.527Z,999.09
2019-01-23T06:59:04.134Z,999.06
2019-01-23T06:59:44.743Z,999.05
2019-01-23T07:00:25.355Z,999.01
2019-01-23T07:01:05.959Z,998.97
2019-01-23T07:01:46.575Z,998.95
2019-01-23T07:02:27.179Z,998.88
2019-01-23T07:03:07.784Z,998.89
2019-01-23T07:03:48.383Z,998.91
2019-01-23T07:04:29.005Z,998.91
2019-01-23T07:05:09.629Z,998.92
2019-01-23T07:05:50.244Z,998.96
2019-01-23T07:06:30.833Z,998.95
2019-01-23T07:07:11.445Z,998.96
2019-01-23T07:07:52.058Z,998.99
2019-01-23T07:08:32.663Z,998.96
2019-01-23T07:09:13.279Z,998.93
2019-01-23T07:09:53.907Z,998.93
2019-01-23T07:10:34.549Z,998.88
2019-01-23T07:11:15.151Z,998.85
2019-01-23T07:11:55.742Z,998.87
2019-01-23T07:12:36.350Z,998.87
2019-01-23T07:13:16.959Z,998.86
2019-01-23T07:13:57.573Z,998.83
2019-01-23T07:14:38.163Z,998.82
2019-01-23T07:15:18.772Z,998.81
2019-01-23T07:15:59.383Z,998.81
2019-01-23T07:16:40.009Z,998.85
2019-01-23T07:17:20.619Z,998.84
2019-01-23T07:18:01.217Z,998.82
2019-01-23T07:18:41.849Z,998.79
2019-01-23T07:19:22.487Z,998.8
2019-01-23T07:20:03.111Z,998.82
2019-01-23T07:20:43.718Z,998.81
2019-01-23T07:21:24.331Z,998.74
2019-01-23T07:22:04.958Z,998.7
2019-01-23T07:22:45.559Z,998.68
2019-01-23T07:23:26.193Z,998.68
2019-01-23T07:24:06.821Z,998.67
2019-01-23T07:24:47.419Z,998.66
2019-01-23T07:25:28.082Z,998.64
2019-01-23T07:26:08.747Z,998.64
2019-01-23T07:26:49.341Z,998.66
2019-01-23T07:27:29.951Z,998.65
2019-01-23T07:28:10.551Z,998.59
2019-01-23T07:28:51.159Z,998.58
2019-01-23T07:29:31.756Z,998.61
2019-01-23T07:30:12.363Z,998.56
2019-01-23T07:30:52.969Z,998.53
2019-01-23T07:31:33.571Z,998.45
2019-01-23T07:32:14.185Z,998.41
2019-01-23T07:32:54.779Z,998.45
2019-01-23T07:33:35.397Z,998.46
2019-01-23T07:34:16.007Z,998.43
2019-01-23T07:34:56.643Z,998.48
2019-01-23T07:35:37.239Z,998.38
2019-01-23T07:36:17.837Z,998.35
2019-01-23T07:36:58.441Z,998.29
2019-01-23T07:37:39.078Z,998.26
2019-01-23T07:38:19.753Z,998.23
2019-01-23T07:39:00.388Z,998.24
2019-01-23T07:39:41.001Z,998.32
2019-01-23T07:40:21.598Z,998.29
2019-01-23T07:41:02.217Z,998.24
2019-01-23T07:41:42.905Z,998.26
2019-01-23T07:42:23.509Z,998.21
2019-01-23T07:43:04.117Z,998.24
2019-01-23T07:43:44.733Z,998.28
2019-01-23T07:44:25.329Z,998.28
2019-01-23T07:45:05.919Z,998.23
2019-01-23T07:45:46.526Z,998.27
2019-01-23T07:46:27.134Z,998.23
2019-01-23T07:47:07.734Z,998.23
2019-01-23T07:47:48.352Z,998.21
2019-01-23T07:48:28.960Z,998.23
2019-01-23T07:49:09.569Z,998.17
2019-01-23T07:49:50.177Z,998.11
2019-01-23T07:50:30.805Z,998.11
2019-01-23T07:51:11.417Z,998.11
2019-01-23T07:51:52.031Z,998.01
2019-01-23T07:52:32.636Z,998.04
2019-01-23T07:53:13.247Z,997.97
2019-01-23T07:53:54.002Z,997.9
2019-01-23T07:54:36.407Z,997.9
2019-01-23T07:55:17.310Z,997.88
2019-01-23T07:55:58.135Z,997.85
2019-01-23T07:56:38.772Z,997.88
2019-01-23T07:57:19.383Z,997.87
2019-01-23T07:57:59.999Z,997.85
2019-01-23T07:58:40.629Z,997.86
2019-01-23T07:59:21.254Z,997.86
2019-01-23T08:00:01.868Z,997.84
2019-01-23T08:00:42.474Z,997.74
2019-01-23T08:01:23.088Z,997.69
2019-01-23T08:02:03.703Z,997.71
2019-01-23T08:02:44.313Z,997.78
2019-01-23T08:03:24.941Z,997.74
2019-01-23T08:04:05.539Z,997.75
2019-01-23T08:04:46.145Z,997.69
2019-01-23T08:05:26.829Z,997.73
2019-01-23T08:06:07.463Z,997.7
2019-01-23T08:06:48.119Z,997.64
2019-01-23T08:07:28.728Z,997.63
2019-01-23T08:08:09.402Z,997.64
2019-01-23T08:08:50.007Z,997.47
2019-01-23T08:09:30.627Z,997.49
2019-01-23T08:10:11.247Z,997.47
2019-01-23T08:10:51.879Z,997.44
2019-01-23T08:11:32.505Z,997.44
2019-01-23T08:12:13.135Z,997.35
2019-01-23T08:12:53.743Z,997.35
2019-01-23T08:13:34.375Z,997.4
2019-01-23T08:14:14.985Z,997.41
2019-01-23T08:14:55.592Z,997.34
2019-01-23T08:15:36.191Z,997.37
2019-01-23T08:16:16.805Z,997.45
2019-01-23T08:16:57.416Z,997.44
2019-01-23T08:17:38.021Z,997.41
2019-01-23T08:18:18.639Z,997.3
2019-01-23T08:18:59.263Z,997.29